Time;durP1;ratioP1;P1;durP2;ratioP2;P2;SDS_P1;SDS_P2;PMS_P1;PMS_P2;Temp;Humidity;BMP_temperature;BMP_pressure;BME280_temperature;BME280_humidity;BME280_pressure;Samples;Min_cycle;Max_cycle;Signal;HPM_P1;HPM_P2
2024/02/29 00:02:16;;;;;;;0.63;0.63;;;;;;;8.16;92.50;97533.06;5086046;28;20051;-60
2024/02/29 00:04:43;;;;;;;0.60;0.60;;;;;;;7.90;92.52;97504.16;5085912;28;20442;-66
2024/02/29 00:07:10;;;;;;;0.65;0.65;;;;;;;8.33;92.50;97548.66;5085618;28;20052;-57
2024/02/29 00:09:37;;;;;;;0.70;0.70;;;;;;;7.62;92.98;97468.94;5085295;28;20236;-65
2024/02/29 00:12:04;;;;;;;0.70;0.70;;;;;;;8.22;92.53;97547.44;5085526;28;20105;-65
2024/02/29 00:14:32;;;;;;;0.60;0.60;;;;;;;7.79;92.65;97501.06;5085638;28;20059;-60
2024/02/29 00:17:00;;;;;;;0.60;0.60;;;;;;;7.98;92.71;97547.41;5085555;28;20055;-66
2024/02/29 00:19:28;;;;;;;0.70;0.70;;;;;;;7.93;93.13;97547.59;5083829;28;20056;-64
2024/02/29 00:21:55;;;;;;;0.68;0.68;;;;;;;8.06;92.11;97549.25;5085071;28;20087;-65
2024/02/29 00:24:22;;;;;;;0.70;0.70;;;;;;;7.92;92.71;97544.03;5085316;28;20461;-66
2024/02/29 00:26:49;;;;;;;0.60;0.60;;;;;;;7.96;92.65;97550.50;5085215;28;20067;-65
2024/02/29 00:29:15;;;;;;;0.60;0.60;;;;;;;7.92;93.60;97548.75;5085108;28;20052;-65
2024/02/29 00:31:43;;;;;;;0.70;0.70;;;;;;;7.95;93.70;97548.88;5085330;28;20133;-66
2024/02/29 00:34:14;;;;;;;0.60;0.60;;;;;;;7.92;94.16;97548.75;5085068;28;20414;-60
2024/02/29 00:36:41;;;;;;;0.60;0.60;;;;;;;7.90;93.75;97556.56;5085179;28;20058;-60
2024/02/29 00:39:08;;;;;;;0.60;0.60;;;;;;;7.93;92.54;97551.19;5084826;28;20052;-58
2024/02/29 00:41:41;;;;;;;0.63;0.63;;;;;;;7.77;92.67;97549.41;5086134;28;20449;-58
2024/02/29 00:44:09;;;;;;;0.60;0.60;;;;;;;7.70;92.78;97530.63;5085108;28;20516;-58
2024/02/29 00:46:39;;;;;;;0.70;0.70;;;;;;;7.44;93.40;97521.84;5083476;28;20510;-58
2024/02/29 00:49:06;;;;;;;0.60;0.60;;;;;;;7.70;93.58;97564.53;5084647;28;20056;-58
2024/02/29 00:51:33;;;;;;;0.60;0.60;;;;;;;6.71;93.34;97399.50;5084489;28;20070;-66
2024/02/29 00:54:00;;;;;;;0.70;0.70;;;;;;;7.59;93.52;97555.06;5082570;28;20048;-58
2024/02/29 00:56:27;;;;;;;0.63;0.63;;;;;;;7.53;94.26;97537.16;5084876;28;20052;-65
2024/02/29 00:58:54;;;;;;;0.60;0.60;;;;;;;7.32;94.97;97508.78;5084202;28;20067;-60
2024/02/29 01:01:20;;;;;;;0.60;0.60;;;;;;;7.73;94.77;97552.84;5084604;28;20048;-66
2024/02/29 01:03:47;;;;;;;0.60;0.60;;;;;;;7.27;95.30;97486.94;5084042;28;20479;-66
2024/02/29 01:06:15;;;;;;;0.60;0.60;;;;;;;7.77;95.08;97552.16;5084233;28;20043;-66
2024/02/29 01:08:42;;;;;;;0.70;0.70;;;;;;;7.79;94.62;97547.94;5084409;28;20147;-58
2024/02/29 01:11:09;;;;;;;0.60;0.60;;;;;;;7.77;94.57;97557.66;5084355;28;20477;-61
2024/02/29 01:13:36;;;;;;;0.60;0.60;;;;;;;7.78;94.23;97549.06;5084460;28;20129;-60
2024/02/29 01:16:04;;;;;;;0.60;0.60;;;;;;;7.61;94.05;97528.00;5084707;28;20058;-66
2024/02/29 01:18:30;;;;;;;0.63;0.63;;;;;;;7.63;93.59;97547.72;5084256;28;20056;-59
2024/02/29 01:20:58;;;;;;;0.60;0.60;;;;;;;7.51;93.49;97560.66;5084372;28;20044;-66
2024/02/29 01:23:24;;;;;;;0.60;0.60;;;;;;;7.44;93.84;97554.91;5084668;28;20414;-58
2024/02/29 01:25:51;;;;;;;0.60;0.60;;;;;;;7.61;92.72;97552.81;5084100;28;20059;-67
2024/02/29 01:28:18;;;;;;;0.50;0.50;;;;;;;7.07;92.23;97463.00;5082677;28;20051;-66
2024/02/29 01:30:45;;;;;;;0.57;0.57;;;;;;;7.36;92.25;97515.25;5082331;28;20048;-57
2024/02/29 01:33:11;;;;;;;0.60;0.60;;;;;;;7.51;92.84;97553.22;5083904;28;20063;-58
2024/02/29 01:35:38;;;;;;;0.60;0.60;;;;;;;7.54;92.82;97549.78;5082494;28;20108;-58
2024/02/29 01:38:05;;;;;;;0.60;0.60;;;;;;;7.34;92.72;97536.81;5083947;28;20048;-66
2024/02/29 01:40:32;;;;;;;0.60;0.60;;;;;;;7.33;93.09;97557.25;5083917;28;20044;-65
2024/02/29 01:42:59;;;;;;;0.50;0.50;;;;;;;6.80;92.96;97457.22;5099082;28;20054;-58
2024/02/29 01:45:26;;;;;;;0.60;0.60;;;;;;;6.93;92.06;97495.53;5083636;28;20056;-59
2024/02/29 01:47:52;;;;;;;0.60;0.60;;;;;;;7.19;92.48;97545.69;5083580;28;20074;-57
2024/02/29 01:50:19;;;;;;;0.57;0.57;;;;;;;7.08;95.08;97536.22;5083958;28;20044;-66
2024/02/29 01:52:47;;;;;;;0.60;0.60;;;;;;;6.79;96.42;97522.50;5098119;28;20044;-58
2024/02/29 01:55:15;;;;;;;0.60;0.60;;;;;;;6.85;96.90;97545.94;5083969;28;20060;-66
2024/02/29 01:57:42;;;;;;;0.50;0.50;;;;;;;6.70;97.06;97546.50;5083798;28;20449;-65
2024/02/29 02:00:10;;;;;;;0.60;0.60;;;;;;;6.77;97.84;97535.78;5083467;28;20052;-65
2024/02/29 02:02:37;;;;;;;0.50;0.50;;;;;;;6.35;97.78;97479.09;5083984;28;20048;-66
2024/02/29 02:05:06;;;;;;;0.50;0.50;;;;;;;6.82;97.34;97543.88;5081191;28;20073;-65
2024/02/29 02:07:37;;;;;;;0.50;0.50;;;;;;;6.91;96.15;97541.84;5082968;28;20514;-65
2024/02/29 02:10:06;;;;;;;0.60;0.60;;;;;;;6.92;95.31;97542.66;5083286;28;20052;-58
2024/02/29 02:12:34;;;;;;;0.60;0.60;;;;;;;6.68;95.90;97499.28;5083229;28;20056;-60
2024/02/29 02:15:02;;;;;;;0.50;0.50;;;;;;;6.86;96.54;97544.81;5083063;28;20435;-57
2024/02/29 02:17:31;;;;;;;0.60;0.60;;;;;;;6.46;97.40;97485.81;5082913;28;20135;-65
2024/02/29 02:20:00;;;;;;;0.55;0.55;;;;;;;6.44;98.07;97471.56;5082890;28;20051;-58
2024/02/29 02:22:28;;;;;;;0.60;0.60;;;;;;;6.85;98.00;97559.72;5081420;28;20051;-65
2024/02/29 02:24:55;;;;;;;0.52;0.52;;;;;;;6.47;96.70;97486.59;5082391;28;20048;-65
2024/02/29 02:27:23;;;;;;;0.60;0.60;;;;;;;6.11;95.60;97432.13;5082957;28;20101;-58
2024/02/29 02:29:49;;;;;;;0.50;0.50;;;;;;;6.80;95.97;97562.66;5083284;28;20044;-65
2024/02/29 02:32:16;;;;;;;0.50;0.50;;;;;;;6.87;95.09;97554.69;5081697;28;20368;-66
2024/02/29 02:34:43;;;;;;;0.60;0.60;;;;;;;6.64;96.74;97528.59;5081255;28;20503;-66
2024/02/29 02:37:10;;;;;;;0.60;0.60;;;;;;;6.76;96.75;97547.16;5082474;28;20112;-58
2024/02/29 02:39:37;;;;;;;0.52;0.52;;;;;;;6.61;96.78;97526.50;5082869;28;20141;-65
2024/02/29 02:42:04;;;;;;;0.50;0.50;;;;;;;6.61;97.72;97528.47;5083507;28;20051;-65
2024/02/29 02:44:31;;;;;;;0.50;0.50;;;;;;;6.78;96.68;97542.91;5083379;28;20067;-65
2024/02/29 02:46:58;;;;;;;0.60;0.60;;;;;;;6.69;97.11;97555.94;5081166;28;20063;-65
2024/02/29 02:49:25;;;;;;;0.60;0.60;;;;;;;6.62;97.68;97572.16;5082340;28;20510;-66
2024/02/29 02:51:51;;;;;;;0.50;0.50;;;;;;;6.59;98.17;97561.81;5082576;28;20051;-65
2024/02/29 02:54:18;;;;;;;0.60;0.60;;;;;;;6.68;97.84;97553.50;5082750;28;20075;-57
2024/02/29 02:56:45;;;;;;;0.50;0.50;;;;;;;6.66;97.48;97553.03;5082297;28;20048;-65
2024/02/29 02:59:12;;;;;;;0.60;0.60;;;;;;;6.62;97.71;97552.91;5063495;28;20053;-65
2024/02/29 03:01:38;;;;;;;0.57;0.57;;;;;;;6.74;97.13;97553.00;5060791;28;20579;-65
2024/02/29 03:04:05;;;;;;;0.60;0.60;;;;;;;6.73;96.61;97551.38;5062164;28;20628;-66
2024/02/29 03:06:32;;;;;;;0.60;0.60;;;;;;;6.71;96.28;97558.34;5062177;28;20152;-57
2024/02/29 03:08:59;;;;;;;0.60;0.60;;;;;;;6.60;96.51;97557.94;5077434;28;20052;-59
2024/02/29 03:11:26;;;;;;;0.50;0.50;;;;;;;6.70;95.07;97565.78;5062607;28;20488;-58
2024/02/29 03:13:53;;;;;;;0.45;0.45;;;;;;;6.42;95.04;97539.09;5062052;28;20502;-58
2024/02/29 03:16:22;;;;;;;0.55;0.55;;;;;;;6.07;93.92;97502.66;5064691;28;20111;-57
2024/02/29 03:18:49;;;;;;;0.40;0.40;;;;;;;6.07;93.19;97510.91;5065407;28;20083;-58
2024/02/29 03:21:16;;;;;;;0.57;0.57;;;;;;;6.50;92.91;97574.81;5066816;28;20068;-66
2024/02/29 03:23:43;;;;;;;0.50;0.50;;;;;;;6.05;93.68;97529.69;5081778;28;20048;-65
2024/02/29 03:26:10;;;;;;;0.50;0.50;;;;;;;6.28;94.67;97566.81;5065552;28;20048;-60
2024/02/29 03:28:37;;;;;;;0.50;0.50;;;;;;;6.24;95.03;97587.88;5065962;28;20118;-65
2024/02/29 03:31:03;;;;;;;0.50;0.50;;;;;;;6.20;95.79;97591.63;5081336;28;20055;-65
2024/02/29 03:33:30;;;;;;;0.50;0.50;;;;;;;6.21;96.26;97573.97;5066138;28;20094;-57
2024/02/29 03:35:57;;;;;;;0.50;0.50;;;;;;;6.31;95.29;97577.16;5065723;28;20045;-58
2024/02/29 03:38:24;;;;;;;0.50;0.50;;;;;;;5.87;96.01;97501.47;5065832;28;20048;-57
2024/02/29 03:40:51;;;;;;;0.45;0.45;;;;;;;5.86;96.20;97512.78;5065502;28;20040;-65
2024/02/29 03:43:18;;;;;;;0.50;0.50;;;;;;;6.42;97.21;97572.91;5065594;28;20051;-59
2024/02/29 03:45:45;;;;;;;0.50;0.50;;;;;;;5.79;96.99;97477.53;5065554;28;20074;-60
2024/02/29 03:48:12;;;;;;;0.50;0.50;;;;;;;6.40;96.66;97564.19;5065791;28;20059;-66
2024/02/29 03:50:39;;;;;;;0.50;0.50;;;;;;;6.46;96.66;97573.06;5063780;28;20451;-65
2024/02/29 03:53:06;;;;;;;0.50;0.50;;;;;;;6.47;96.70;97567.22;5069763;28;20070;-65
2024/02/29 03:55:32;;;;;;;0.50;0.50;;;;;;;6.47;96.38;97569.97;5085858;28;20044;-64
2024/02/29 03:57:59;;;;;;;0.50;0.50;;;;;;;6.51;95.97;97576.44;5085558;28;20067;-64
2024/02/29 04:00:26;;;;;;;0.60;0.60;;;;;;;6.42;95.88;97572.91;5085640;28;20079;-58
2024/02/29 04:02:53;;;;;;;0.50;0.50;;;;;;;6.27;96.36;97564.41;5086423;28;20036;-56
2024/02/29 04:05:24;;;;;;;0.50;0.50;;;;;;;6.35;96.50;97560.81;5084563;28;20426;-56
2024/02/29 04:07:53;;;;;;;0.50;0.50;;;;;;;5.96;96.36;97499.47;5085929;28;20091;-57
2024/02/29 04:10:20;;;;;;;0.50;0.50;;;;;;;6.20;97.02;97547.59;5084133;28;20051;-57
2024/02/29 04:12:47;;;;;;;0.60;0.60;;;;;;;6.17;96.85;97540.81;5083917;28;20313;-64
2024/02/29 04:15:14;;;;;;;0.50;0.50;;;;;;;6.18;97.29;97539.66;5085708;28;20414;-65
2024/02/29 04:17:41;;;;;;;0.50;0.50;;;;;;;6.13;97.12;97521.41;5085716;28;20052;-64
2024/02/29 04:20:08;;;;;;;0.60;0.60;;;;;;;6.31;96.38;97532.34;5085437;28;20481;-65
2024/02/29 04:22:35;;;;;;;0.50;0.50;;;;;;;6.17;97.17;97532.56;5083896;28;20513;-57
2024/02/29 04:25:02;;;;;;;0.50;0.50;;;;;;;6.36;96.83;97534.88;5068913;28;20071;-57
2024/02/29 04:27:29;;;;;;;0.50;0.50;;;;;;;6.47;95.86;97536.13;5065891;28;20048;-65
2024/02/29 04:29:56;;;;;;;0.60;0.60;;;;;;;6.04;95.87;97489.56;5084202;28;20147;-58
2024/02/29 04:32:23;;;;;;;0.50;0.50;;;;;;;6.41;97.35;97543.78;5084659;28;20051;-65
2024/02/29 04:34:50;;;;;;;0.50;0.50;;;;;;;5.91;97.74;97454.88;5084444;28;20501;-57
2024/02/29 04:37:16;;;;;;;0.60;0.60;;;;;;;6.58;96.69;97543.69;5084923;28;20055;-66
2024/02/29 04:39:43;;;;;;;0.50;0.50;;;;;;;6.61;97.51;97544.97;5084896;28;20063;-65
2024/02/29 04:42:10;;;;;;;0.50;0.50;;;;;;;6.66;97.62;97537.31;5084564;28;20044;-57
2024/02/29 04:44:37;;;;;;;0.60;0.60;;;;;;;6.66;96.86;97548.34;5083050;28;20059;-65
2024/02/29 04:47:04;;;;;;;0.60;0.60;;;;;;;6.71;96.46;97544.59;5085201;28;20076;-58
2024/02/29 04:49:31;;;;;;;0.60;0.60;;;;;;;6.16;97.53;97453.94;5084764;28;20048;-58
2024/02/29 04:51:58;;;;;;;0.50;0.50;;;;;;;6.17;94.58;97488.56;5085027;28;20052;-57
2024/02/29 04:54:25;;;;;;;0.50;0.50;;;;;;;6.54;91.78;97548.25;5084965;28;20422;-57
2024/02/29 04:56:51;;;;;;;0.50;0.50;;;;;;;6.18;91.65;97506.66;5084647;28;20048;-58
2024/02/29 04:59:18;;;;;;;0.50;0.50;;;;;;;6.26;88.03;97525.06;5084128;28;20529;-66
2024/02/29 05:01:45;;;;;;;0.50;0.50;;;;;;;6.25;86.51;97542.72;5099950;28;20052;-58
2024/02/29 05:04:12;;;;;;;0.50;0.50;;;;;;;6.07;86.76;97544.72;5084382;28;20066;-58
2024/02/29 05:06:39;;;;;;;0.57;0.57;;;;;;;5.95;87.44;97543.81;5084499;28;20059;-65
2024/02/29 05:09:06;;;;;;;0.50;0.50;;;;;;;5.84;87.52;97543.34;5082959;28;20069;-65
2024/02/29 05:11:33;;;;;;;0.50;0.50;;;;;;;5.73;88.99;97554.97;5082932;28;20141;-65
2024/02/29 05:14:05;;;;;;;0.50;0.50;;;;;;;5.46;91.54;97538.84;5084503;28;20119;-58
2024/02/29 05:16:32;;;;;;;0.50;0.50;;;;;;;5.12;93.46;97506.72;5084801;28;20083;-57
2024/02/29 05:18:58;;;;;;;0.50;0.50;;;;;;;4.85;95.02;97440.41;5084623;28;20472;-58
2024/02/29 05:21:25;;;;;;;0.50;0.50;;;;;;;5.61;97.41;97572.13;5083885;28;20048;-60
2024/02/29 05:23:52;;;;;;;0.40;0.40;;;;;;;5.76;98.69;97566.13;5084167;28;20087;-65
2024/02/29 05:26:19;;;;;;;0.50;0.50;;;;;;;5.93;98.65;97562.56;5083614;28;20056;-57
2024/02/29 05:28:47;;;;;;;0.50;0.50;;;;;;;5.98;98.52;97567.88;5084047;28;20403;-59
2024/02/29 05:31:14;;;;;;;0.50;0.50;;;;;;;5.47;97.93;97452.59;5082383;28;20051;-65
2024/02/29 05:33:41;;;;;;;0.50;0.50;;;;;;;6.01;97.94;97553.47;5084032;28;20494;-65
2024/02/29 05:36:08;;;;;;;0.50;0.50;;;;;;;6.26;97.78;97569.06;5082147;28;20052;-59
2024/02/29 05:38:35;;;;;;;0.50;0.50;;;;;;;6.37;97.78;97570.31;5083527;28;20076;-58
2024/02/29 05:41:03;;;;;;;0.55;0.55;;;;;;;6.04;96.85;97511.56;5081461;28;20048;-66
2024/02/29 05:43:29;;;;;;;0.60;0.60;;;;;;;6.30;95.94;97559.03;5083403;28;20046;-67
2024/02/29 05:46:01;;;;;;;0.55;0.55;;;;;;;6.13;94.37;97509.63;5083836;28;20057;-58
2024/02/29 05:48:29;;;;;;;0.50;0.50;;;;;;;6.66;94.10;97581.38;5082823;28;20051;-58
2024/02/29 05:50:57;;;;;;;0.60;0.60;;;;;;;6.66;94.03;97578.63;5084412;28;20055;-59
2024/02/29 05:53:24;;;;;;;0.57;0.57;;;;;;;6.34;94.61;97524.22;5083874;28;20047;-59
2024/02/29 05:55:51;;;;;;;0.50;0.50;;;;;;;6.78;94.27;97586.97;5082333;28;20056;-66
2024/02/29 05:58:18;;;;;;;0.50;0.50;;;;;;;6.55;94.59;97538.84;5114599;27;20371;-59
2024/02/29 06:00:46;;;;;;;0.60;0.60;;;;;;;6.84;93.66;97574.63;5113939;27;20467;-61
2024/02/29 06:03:13;;;;;;;0.50;0.50;;;;;;;7.03;94.90;97577.75;5081876;28;20062;-59
2024/02/29 06:05:40;;;;;;;0.60;0.60;;;;;;;7.22;93.48;97585.56;5081878;28;20052;-59
2024/02/29 06:08:07;;;;;;;0.60;0.60;;;;;;;7.17;93.29;97586.56;5082292;28;20052;-65
2024/02/29 06:10:33;;;;;;;0.57;0.57;;;;;;;7.14;92.65;97590.00;5082101;28;20048;-58
2024/02/29 06:13:00;;;;;;;0.60;0.60;;;;;;;7.16;92.14;97584.94;5083708;28;20044;-59
2024/02/29 06:15:27;;;;;;;0.60;0.60;;;;;;;6.48;91.99;97524.00;5115392;27;20142;-66
2024/02/29 06:17:56;;;;;;;0.60;0.60;;;;;;;6.62;91.45;97533.63;5083742;28;20530;-66
2024/02/29 06:20:23;;;;;;;0.60;0.60;;;;;;;7.14;89.42;97584.47;5083108;28;20051;-59
2024/02/29 06:22:49;;;;;;;0.60;0.60;;;;;;;6.79;89.80;97555.56;5115388;27;20082;-67
2024/02/29 06:25:17;;;;;;;0.60;0.60;;;;;;;7.15;90.04;97591.59;5082612;28;21218;-58
2024/02/29 06:27:44;;;;;;;0.60;0.60;;;;;;;7.26;89.71;97592.81;5082903;28;20048;-58
2024/02/29 06:30:11;;;;;;;0.60;0.60;;;;;;;7.31;90.00;97589.84;5115022;27;20048;-67
2024/02/29 06:32:43;;;;;;;0.60;0.60;;;;;;;7.21;89.45;97550.88;5114920;27;20499;-59
2024/02/29 06:35:10;;;;;;;0.60;0.60;;;;;;;7.52;88.89;97590.63;5114796;27;20052;-67
2024/02/29 06:37:41;;;;;;;0.60;0.60;;;;;;;7.52;87.61;97587.88;5081244;28;20062;-59
2024/02/29 06:40:10;;;;;;;0.60;0.60;;;;;;;7.46;88.18;97580.97;5082985;28;20071;-59
2024/02/29 06:42:38;;;;;;;0.60;0.60;;;;;;;7.49;88.45;97585.81;5082879;28;20058;-61
2024/02/29 06:45:06;;;;;;;0.60;0.60;;;;;;;7.43;86.88;97567.88;5082719;28;20384;-67
2024/02/29 06:47:33;;;;;;;0.55;0.55;;;;;;;7.55;87.53;97573.47;5115193;27;20423;-60
2024/02/29 06:50:00;;;;;;;0.50;0.50;;;;;;;7.76;87.78;97589.16;5082349;28;20850;-67
2024/02/29 06:52:27;;;;;;;0.60;0.60;;;;;;;7.74;87.54;97570.97;5082787;28;20490;-66
2024/02/29 06:54:54;;;;;;;0.60;0.60;;;;;;;7.91;87.40;97585.75;5065498;28;20140;-67
2024/02/29 06:57:21;;;;;;;0.63;0.63;;;;;;;8.05;87.83;97587.06;5062529;28;20487;-67
2024/02/29 06:59:48;;;;;;;0.60;0.60;;;;;;;8.04;87.80;97555.13;5061964;28;20056;-59
2024/02/29 07:02:20;;;;;;;0.60;0.60;;;;;;;8.17;86.94;97586.31;5076816;28;20146;-63
2024/02/29 07:04:47;;;;;;;0.70;0.70;;;;;;;7.99;86.96;97521.41;5082156;28;20441;-61
2024/02/29 07:07:14;;;;;;;0.70;0.70;;;;;;;8.50;86.80;97576.03;5082212;28;20097;-63
2024/02/29 07:09:42;;;;;;;0.70;0.70;;;;;;;8.59;86.72;97579.47;5082141;28;20055;-60
2024/02/29 07:12:09;;;;;;;0.70;0.70;;;;;;;8.71;86.48;97573.97;5081089;28;20051;-70
2024/02/29 07:14:35;;;;;;;0.70;0.70;;;;;;;8.54;85.23;97571.41;5080763;28;20056;-59
2024/02/29 07:17:05;;;;;;;0.60;0.60;;;;;;;8.40;87.88;97573.72;5082117;28;20058;-62
2024/02/29 07:19:32;;;;;;;0.70;0.70;;;;;;;8.69;86.94;97574.28;5082149;28;20048;-62
2024/02/29 07:21:59;;;;;;;0.60;0.60;;;;;;;8.92;86.10;97556.13;5081545;28;20159;-61
2024/02/29 07:24:26;;;;;;;0.70;0.70;;;;;;;9.18;84.40;97569.56;5082500;28;20125;-73
2024/02/29 07:26:53;;;;;;;0.70;0.70;;;;;;;8.83;84.38;97521.47;5080336;28;20062;-69
2024/02/29 07:29:20;;;;;;;0.80;0.80;;;;;;;9.12;83.77;97577.28;5080912;28;20487;-60
2024/02/29 07:31:49;;;;;;;0.77;0.77;;;;;;;9.13;83.09;97526.38;5080083;28;20048;-72
2024/02/29 07:34:19;;;;;;;0.70;0.70;;;;;;;9.43;82.93;97571.09;5080232;28;20054;-57
2024/02/29 07:36:46;;;;;;;0.70;0.70;;;;;;;9.50;82.75;97560.25;5081331;28;20510;-59
2024/02/29 07:39:13;;;;;;;0.70;0.70;;;;;;;9.54;82.96;97560.34;5081241;28;20481;-62
2024/02/29 07:41:40;;;;;;;0.80;0.80;;;;;;;9.53;82.26;97531.88;5080415;28;20060;-64
2024/02/29 07:44:07;;;;;;;0.70;0.70;;;;;;;9.13;82.22;97467.53;5072719;28;20052;-63
2024/02/29 07:46:35;;;;;;;0.77;0.77;;;;;;;9.89;81.92;97551.13;5061140;28;20424;-63
2024/02/29 07:49:02;;;;;;;0.80;0.80;;;;;;;9.93;81.86;97552.00;5061047;28;20090;-68
2024/02/29 07:51:29;;;;;;;0.70;0.70;;;;;;;10.31;81.49;97551.47;5059708;28;20048;-70
2024/02/29 07:53:56;;;;;;;0.70;0.70;;;;;;;10.50;79.90;97510.81;5077186;28;20054;-58
2024/02/29 07:56:22;;;;;;;0.90;0.90;;;;;;;10.87;78.57;97535.44;5081608;28;20056;-57
2024/02/29 07:58:52;;;;;;;0.90;0.90;;;;;;;11.14;77.94;97523.41;5080919;28;20109;-59
2024/02/29 08:01:19;;;;;;;0.90;0.90;;;;;;;11.49;76.83;97540.84;5081691;28;20075;-71
2024/02/29 08:03:46;;;;;;;0.90;0.90;;;;;;;11.76;75.92;97553.72;5084342;28;20044;-73
2024/02/29 08:06:14;;;;;;;1.00;1.00;;;;;;;11.90;75.15;97531.81;5084903;28;20431;-58
2024/02/29 08:08:41;;;;;;;0.90;0.90;;;;;;;11.80;73.07;97507.41;5085674;28;20052;-62
2024/02/29 08:11:08;;;;;;;0.90;0.90;;;;;;;12.40;72.50;97545.44;5085493;28;20055;-61
2024/02/29 08:13:35;;;;;;;0.90;0.90;;;;;;;12.40;72.92;97551.00;5084191;28;20136;-65
2024/02/29 08:16:02;;;;;;;1.00;1.00;;;;;;;12.55;71.91;97522.25;5085594;28;20126;-62
2024/02/29 08:18:29;;;;;;;1.00;1.00;;;;;;;12.10;71.69;97488.94;5085354;28;20632;-71
2024/02/29 08:20:56;;;;;;;0.90;0.90;;;;;;;12.79;71.83;97543.31;5084336;28;20127;-62
2024/02/29 08:23:23;;;;;;;0.90;0.90;;;;;;;12.85;71.11;97548.19;5084626;28;20048;-63
2024/02/29 08:25:50;;;;;;;1.00;1.00;;;;;;;12.61;71.59;97514.44;5083390;28;20514;-62
2024/02/29 08:28:17;;;;;;;1.05;1.05;;;;;;;12.93;72.09;97516.53;5084966;28;20048;-61
2024/02/29 08:30:44;;;;;;;1.00;1.00;;;;;;;12.40;71.74;97405.72;5084852;28;20048;-71
2024/02/29 08:33:10;;;;;;;1.10;1.10;;;;;;;13.46;71.42;97551.53;5082706;28;20047;-65
2024/02/29 08:35:38;;;;;;;1.00;1.00;;;;;;;13.30;72.17;97548.13;5083154;28;20529;-67
2024/02/29 08:38:05;;;;;;;0.90;0.90;;;;;;;13.50;72.69;97552.38;5083324;28;20048;-70
2024/02/29 08:40:32;;;;;;;1.10;1.10;;;;;;;13.31;71.38;97466.25;5085077;28;20048;-63
2024/02/29 08:42:59;;;;;;;1.10;1.10;;;;;;;13.63;70.87;97548.19;5082866;28;20055;-64
2024/02/29 08:45:26;;;;;;;1.00;1.00;;;;;;;13.51;71.82;97548.41;5083234;28;20056;-62
2024/02/29 08:47:53;;;;;;;1.10;1.10;;;;;;;13.41;71.96;97557.44;5084353;28;20054;-65
2024/02/29 08:50:19;;;;;;;1.00;1.00;;;;;;;13.58;71.68;97559.66;5084753;28;20087;-65
2024/02/29 08:52:46;;;;;;;1.00;1.00;;;;;;;13.20;73.31;97554.34;5084645;28;20668;-65
2024/02/29 08:55:13;;;;;;;1.10;1.10;;;;;;;13.05;72.59;97452.41;5084469;28;20083;-63
2024/02/29 08:57:40;;;;;;;1.10;1.10;;;;;;;12.37;73.67;97432.28;5084688;28;20047;-65
2024/02/29 09:00:07;;;;;;;0.90;0.90;;;;;;;12.63;76.39;97554.56;5083944;28;20565;-65
2024/02/29 09:02:34;;;;;;;1.00;1.00;;;;;;;11.91;78.52;97511.19;5084059;28;20056;-65
2024/02/29 09:05:02;;;;;;;1.00;1.00;;;;;;;12.44;78.81;97542.72;5082831;28;20544;-63
2024/02/29 09:07:29;;;;;;;0.98;0.98;;;;;;;12.61;77.43;97543.03;5084349;28;20056;-64
2024/02/29 09:09:56;;;;;;;0.90;0.90;;;;;;;12.82;76.53;97548.94;5082511;28;20101;-65
2024/02/29 09:12:23;;;;;;;0.95;0.95;;;;;;;13.20;74.63;97522.91;5084139;28;20048;-63
2024/02/29 09:14:50;;;;;;;1.10;1.10;;;;;;;13.73;72.59;97526.41;5083973;28;20055;-63
2024/02/29 09:17:16;;;;;;;1.10;1.10;;;;;;;13.43;72.04;97538.38;5082658;28;20070;-64
2024/02/29 09:19:43;;;;;;;1.20;1.20;;;;;;;14.02;70.89;97534.72;5082571;28;20047;-63
2024/02/29 09:22:10;;;;;;;1.10;1.10;;;;;;;14.26;69.81;97539.00;5084081;28;20135;-63
2024/02/29 09:24:37;;;;;;;1.10;1.10;;;;;;;14.56;68.42;97536.91;5083305;28;20127;-63
2024/02/29 09:27:04;;;;;;;1.27;1.27;;;;;;;14.32;67.78;97524.34;5082466;28;20135;-65
2024/02/29 09:29:32;;;;;;;1.20;1.20;;;;;;;14.61;66.40;97528.19;5070562;28;20053;-63
2024/02/29 09:32:02;;;;;;;1.25;1.25;;;;;;;14.33;68.34;97514.00;5078456;28;20538;-65
2024/02/29 09:34:30;;;;;;;1.27;1.27;;;;;;;14.64;67.31;97513.47;5082814;28;20495;-63
2024/02/29 09:37:04;;;;;;;1.30;1.30;;;;;;;15.03;65.22;97523.75;5084535;28;20098;-62
2024/02/29 09:39:31;;;;;;;1.10;1.10;;;;;;;13.63;70.48;97539.03;5084302;28;20060;-66
2024/02/29 09:41:58;;;;;;;1.10;1.10;;;;;;;13.46;70.93;97559.09;5084008;28;20059;-62
2024/02/29 09:44:39;;;;;;;1.02;1.02;;;;;;;13.17;71.78;97454.94;5063616;28;20048;-64
2024/02/29 09:47:08;;;;;;;1.20;1.20;;;;;;;13.63;69.21;97461.88;5063245;28;20061;-64
2024/02/29 09:49:35;;;;;;;1.10;1.10;;;;;;;14.26;69.72;97508.34;5063013;28;20144;-63
2024/02/29 09:52:03;;;;;;;1.23;1.23;;;;;;;14.00;70.05;97519.59;5063269;28;20055;-66
2024/02/29 09:54:33;;;;;;;1.10;1.10;;;;;;;13.87;69.34;97465.31;5081545;28;20551;-64
2024/02/29 09:57:00;;;;;;;1.20;1.20;;;;;;;14.51;67.81;97520.56;5083637;28;20055;-64
2024/02/29 09:59:29;;;;;;;1.30;1.30;;;;;;;14.82;65.52;97522.81;5082818;28;20056;-64
2024/02/29 10:01:56;;;;;;;1.33;1.33;;;;;;;15.24;64.32;97553.81;5081716;28;20040;-64
2024/02/29 10:04:26;;;;;;;1.17;1.17;;;;;;;14.47;66.06;97522.50;5082513;28;20055;-63
2024/02/29 10:06:54;;;;;;;1.40;1.40;;;;;;;15.03;65.97;97528.56;5081852;28;20063;-62
2024/02/29 10:09:21;;;;;;;1.30;1.30;;;;;;;15.59;62.78;97516.97;5083236;28;20558;-65
2024/02/29 10:11:48;;;;;;;1.23;1.23;;;;;;;14.82;64.24;97492.94;5083239;28;20083;-64
2024/02/29 10:14:25;;;;;;;1.40;1.40;;;;;;;15.49;62.41;97518.50;5082301;28;20048;-62
2024/02/29 10:16:53;;;;;;;1.42;1.42;;;;;;;15.67;61.59;97491.47;5083101;28;20131;-62
2024/02/29 10:19:23;;;;;;;1.40;1.40;;;;;;;15.88;61.58;97508.34;5081634;28;20070;-64
2024/02/29 10:21:51;;;;;;;1.40;1.40;;;;;;;15.41;62.37;97500.13;5083104;28;20059;-63
2024/02/29 10:24:23;;;;;;;1.30;1.30;;;;;;;14.92;61.66;97435.63;5080892;28;20055;-63
2024/02/29 10:26:50;;;;;;;1.10;1.10;;;;;;;14.96;64.02;97495.84;5081051;28;20055;-65
2024/02/29 10:29:18;;;;;;;1.30;1.30;;;;;;;15.15;63.25;97491.97;5070743;28;20056;-63
2024/02/29 10:31:45;;;;;;;1.20;1.20;;;;;;;15.07;62.62;97490.31;5062460;28;20052;-63
2024/02/29 10:34:13;;;;;;;1.35;1.35;;;;;;;14.45;64.88;97491.41;5077445;28;20054;-63
2024/02/29 10:36:40;;;;;;;1.30;1.30;;;;;;;15.16;63.39;97494.38;5080922;28;20048;-65
2024/02/29 10:39:08;;;;;;;1.40;1.40;;;;;;;15.89;61.37;97487.56;5082636;28;20426;-63
2024/02/29 10:41:38;;;;;;;1.30;1.30;;;;;;;16.56;59.11;97476.56;5081413;28;20421;-65
2024/02/29 10:44:09;;;;;;;1.48;1.48;;;;;;;15.91;58.50;97418.13;5082180;28;20392;-62
2024/02/29 10:46:42;;;;;;;1.45;1.45;;;;;;;16.36;57.46;97462.13;5082304;28;20063;-63
2024/02/29 10:49:26;;;;;;;1.50;1.50;;;;;;;15.63;56.76;97356.63;5082127;28;20655;-65
2024/02/29 10:52:20;;;;;;;1.40;1.40;;;;;;;16.89;55.90;97459.38;5082182;28;20084;-62
2024/02/29 10:54:57;;;;;;;;;;;;;;;17.12;55.22;97447.75;5082368;28;20377;-65
2024/02/29 10:57:28;;;;;;;1.40;1.40;;;;;;;16.40;56.22;97462.94;5080503;28;19928;-65
2024/02/29 11:00:01;;;;;;;1.30;1.30;;;;;;;16.63;55.53;97431.00;5081821;28;20067;-62
2024/02/29 11:02:29;;;;;;;1.60;1.60;;;;;;;16.34;54.90;97355.47;5080670;28;20161;-63
2024/02/29 11:04:57;;;;;;;1.52;1.52;;;;;;;16.97;54.62;97429.34;5081500;28;20048;-65
2024/02/29 11:07:25;;;;;;;1.52;1.52;;;;;;;16.76;54.81;97412.59;5080720;28;20619;-65
2024/02/29 11:09:53;;;;;;;1.50;1.50;;;;;;;17.21;54.29;97439.72;5082264;28;20139;-64
2024/02/29 11:12:21;;;;;;;1.50;1.50;;;;;;;17.72;53.68;97431.56;5082516;28;20165;-63
2024/02/29 11:14:49;;;;;;;1.70;1.70;;;;;;;17.49;52.70;97372.41;5081455;28;20098;-63
2024/02/29 11:17:17;;;;;;;1.50;1.50;;;;;;;16.83;54.59;97435.78;5080914;28;20044;-65
2024/02/29 11:19:45;;;;;;;1.40;1.40;;;;;;;16.32;56.23;97422.19;5080570;28;20126;-65
2024/02/29 11:22:34;;;;;;;1.60;1.60;;;;;;;17.14;54.95;97411.72;5077709;28;20063;-63
2024/02/29 11:25:11;;;;;;;1.30;1.30;;;;;;;15.00;56.40;97189.75;5061891;28;20048;-62
2024/02/29 11:27:46;;;;;;;1.20;1.20;;;;;;;15.34;58.25;97343.72;5062200;28;20147;-65
2024/02/29 11:30:20;;;;;;;1.30;1.30;;;;;;;16.26;57.47;97406.19;5061390;28;20105;-63
2024/02/29 11:32:48;;;;;;;1.70;1.70;;;;;;;16.67;55.87;97325.50;5062849;28;20404;-65
2024/02/29 11:35:14;;;;;;;1.52;1.52;;;;;;;16.24;56.69;97324.72;5081890;28;20508;-65
2024/02/29 11:37:43;;;;;;;1.63;1.63;;;;;;;17.25;55.12;97376.09;5082543;28;20043;-71
2024/02/29 11:40:15;;;;;;;1.30;1.30;;;;;;;17.35;53.70;97341.66;5064391;28;20056;-74
2024/02/29 11:42:43;;;;;;;1.67;1.67;;;;;;;17.33;53.75;97377.66;5063894;28;20447;-77